Time;durP1;ratioP1;P1;durP2;ratioP2;P2;SDS_P1;SDS_P2;PMS_P1;PMS_P2;Temp;Humidity;BMP_temperature;BMP_pressure;BME280_temperature;BME280_humidity;BME280_pressure;Samples;Min_cycle;Max_cycle;Signal;HPM_P1;HPM_P2
2021/01/09 00:00:17;;;;;;;8.80;5.10;;;;;;;-1.56;100.00;100908.63;5019338;28;20641;-73
2021/01/09 00:02:43;;;;;;;9.10;4.33;;;;;;;-1.56;100.00;100906.03;4992552;28;20037;-72
2021/01/09 00:05:10;;;;;;;9.57;4.63;;;;;;;-1.56;100.00;100901.75;5024068;28;20518;-72
2021/01/09 00:07:37;;;;;;;8.50;5.00;;;;;;;-1.55;100.00;100900.91;5013418;28;20067;-72
2021/01/09 00:10:05;;;;;;;9.50;5.03;;;;;;;-1.54;100.00;100906.97;5020372;28;20749;-73
2021/01/09 00:12:33;;;;;;;8.10;4.90;;;;;;;-1.55;100.00;100906.09;5000690;28;20033;-73
2021/01/09 00:14:59;;;;;;;9.83;5.00;;;;;;;-1.54;100.00;100905.25;4989452;28;20379;-72
2021/01/09 00:17:25;;;;;;;9.73;5.47;;;;;;;-1.52;100.00;100906.19;5014441;28;20041;-71
2021/01/09 00:19:52;;;;;;;11.37;5.17;;;;;;;-1.53;100.00;100907.00;5008143;28;20115;-72
2021/01/09 00:22:18;;;;;;;10.33;5.97;;;;;;;-1.51;100.00;100907.09;5003595;28;20052;-72
2021/01/09 00:24:44;;;;;;;10.13;4.73;;;;;;;-1.50;100.00;100908.84;5015695;28;20041;-71
2021/01/09 00:27:11;;;;;;;11.57;5.30;;;;;;;-1.49;100.00;100905.41;5002424;28;20033;-72
2021/01/09 00:29:43;;;;;;;9.70;5.50;;;;;;;-1.49;100.00;100914.06;5021853;28;20132;-71
2021/01/09 00:32:10;;;;;;;9.97;4.90;;;;;;;-1.49;100.00;100916.66;5003853;28;20113;-72
2021/01/09 00:34:36;;;;;;;13.13;6.13;;;;;;;-1.48;100.00;100912.34;5011774;28;20073;-71
2021/01/09 00:37:03;;;;;;;10.57;5.27;;;;;;;-1.46;100.00;100919.34;5004967;28;20688;-71
2021/01/09 00:39:29;;;;;;;10.00;4.90;;;;;;;-1.44;100.00;100919.38;5013902;28;20572;-72
2021/01/09 00:41:59;;;;;;;8.97;4.83;;;;;;;-1.44;100.00;100921.97;5009505;28;20037;-71
2021/01/09 00:44:27;;;;;;;11.07;5.13;;;;;;;-1.44;100.00;100920.25;5008492;28;20049;-72
2021/01/09 00:46:54;;;;;;;10.57;5.23;;;;;;;-1.42;100.00;100925.53;5014124;28;20037;-72
2021/01/09 00:49:21;;;;;;;10.87;5.40;;;;;;;-1.42;100.00;100918.63;5019838;28;20620;-71
2021/01/09 00:51:48;;;;;;;9.90;5.47;;;;;;;-1.40;100.00;100920.38;5003233;28;20811;-72
2021/01/09 00:54:14;;;;;;;13.47;5.47;;;;;;;-1.40;100.00;100925.56;5021506;28;20045;-72
2021/01/09 00:56:41;;;;;;;9.20;5.23;;;;;;;-1.40;100.00;100922.97;5019715;28;20048;-72
2021/01/09 00:59:07;;;;;;;10.37;5.27;;;;;;;-1.40;100.00;100929.03;5000537;28;20051;-72
2021/01/09 01:01:33;;;;;;;9.33;5.43;;;;;;;-1.40;100.00;100929.03;4984542;28;20046;-72
2021/01/09 01:04:00;;;;;;;8.03;4.90;;;;;;;-1.40;100.00;100930.75;5004268;28;20515;-72
2021/01/09 01:06:26;;;;;;;9.40;4.83;;;;;;;-1.40;100.00;100929.03;4997698;28;20590;-69
2021/01/09 01:08:53;;;;;;;9.13;5.33;;;;;;;-1.39;100.00;100925.59;5014987;28;20084;-71
2021/01/09 01:11:28;;;;;;;9.33;5.20;;;;;;;-1.37;100.00;100931.72;5003902;28;20042;-69
2021/01/09 01:13:55;;;;;;;9.73;5.23;;;;;;;-1.38;100.00;100931.66;4982749;28;20041;-72
2021/01/09 01:16:22;;;;;;;14.60;6.60;;;;;;;-1.36;100.00;100940.34;4994055;28;20296;-72
2021/01/09 01:18:49;;;;;;;16.83;7.60;;;;;;;-1.36;100.00;100937.78;4996296;28;20045;-72
2021/01/09 01:21:15;;;;;;;13.23;6.17;;;;;;;-1.38;100.00;100942.91;5004778;28;20075;-72
2021/01/09 01:23:41;;;;;;;14.27;6.80;;;;;;;-1.37;100.00;100947.25;5006522;28;20080;-71
2021/01/09 01:26:09;;;;;;;14.70;5.70;;;;;;;-1.36;100.00;100946.41;5015046;28;20494;-69
2021/01/09 01:28:35;;;;;;;13.70;6.47;;;;;;;-1.36;100.00;100949.00;5021542;28;20033;-72
2021/01/09 01:31:04;;;;;;;13.40;6.77;;;;;;;-1.35;100.00;100955.94;5002390;28;20434;-72
2021/01/09 01:33:31;;;;;;;15.90;7.80;;;;;;;-1.36;100.00;100951.59;5023119;28;20037;-72
2021/01/09 01:35:57;;;;;;;13.33;6.77;;;;;;;-1.35;100.00;100948.19;5017590;28;20045;-71
2021/01/09 01:38:25;;;;;;;11.77;6.40;;;;;;;-1.35;100.00;100943.00;5018747;28;20034;-72
2021/01/09 01:41:03;;;;;;;13.53;7.37;;;;;;;-1.34;100.00;100943.91;4999226;28;20045;-72
2021/01/09 01:43:30;;;;;;;12.83;6.37;;;;;;;-1.34;100.00;100937.00;4992551;28;20029;-72
2021/01/09 01:45:57;;;;;;;13.80;6.03;;;;;;;-1.33;100.00;100940.47;5009850;28;20099;-72
2021/01/09 01:48:23;;;;;;;13.63;6.73;;;;;;;-1.33;100.00;100940.47;5007275;28;20091;-72
2021/01/09 01:50:50;;;;;;;13.63;7.20;;;;;;;-1.34;100.00;100941.31;5010471;28;20034;-72
2021/01/09 01:53:17;;;;;;;15.43;7.67;;;;;;;-1.34;100.00;100944.78;4990101;28;20038;-71
2021/01/09 01:55:44;;;;;;;14.50;7.60;;;;;;;-1.33;100.00;100943.94;4993380;28;20127;-71
2021/01/09 01:58:10;;;;;;;15.93;6.37;;;;;;;-1.33;100.00;100946.53;4996569;28;20045;-72
2021/01/09 02:00:37;;;;;;;11.83;6.00;;;;;;;-1.33;100.00;100949.13;5024029;28;20049;-71
2021/01/09 02:03:04;;;;;;;12.07;6.73;;;;;;;-1.32;100.00;100950.88;5021462;28;20708;-71
2021/01/09 02:05:35;;;;;;;14.47;7.10;;;;;;;-1.32;100.00;100950.00;5019305;28;20041;-72
2021/01/09 02:08:07;;;;;;;16.70;8.13;;;;;;;-1.32;100.00;100950.00;4998455;28;20034;-71
2021/01/09 02:10:33;;;;;;;14.17;8.00;;;;;;;-1.33;100.00;100954.31;5025526;28;20608;-71
2021/01/09 02:13:07;;;;;;;12.70;7.17;;;;;;;-1.32;100.00;100956.06;5030345;28;20046;-72
2021/01/09 02:15:34;;;;;;;10.45;6.80;;;;;;;-1.30;100.00;100961.31;5024775;28;20046;-71
2021/01/09 02:18:01;;;;;;;12.60;7.57;;;;;;;-1.29;100.00;100966.53;5003970;28;20041;-71
2021/01/09 02:20:29;;;;;;;12.50;6.60;;;;;;;-1.29;100.00;100968.25;5007910;28;20069;-71
2021/01/09 02:22:55;;;;;;;10.70;6.53;;;;;;;-1.29;100.00;100963.06;5005209;28;20046;-71
2021/01/09 02:25:21;;;;;;;12.03;6.53;;;;;;;-1.28;100.00;100970.88;5024135;28;20064;-72
2021/01/09 02:27:48;;;;;;;13.23;6.80;;;;;;;-1.27;100.00;100967.44;5000129;28;20042;-71
2021/01/09 02:30:15;;;;;;;16.63;8.17;;;;;;;-1.26;100.00;100964.06;4991643;28;20045;-72
2021/01/09 02:32:50;;;;;;;17.77;9.20;;;;;;;-1.26;100.00;100970.91;5026746;28;20054;-71
2021/01/09 02:35:16;;;;;;;16.37;7.07;;;;;;;-1.26;100.00;100964.06;5007736;28;20151;-71
2021/01/09 02:37:43;;;;;;;13.57;6.87;;;;;;;-1.27;100.00;100967.44;5007055;28;20033;-71
2021/01/09 02:40:14;;;;;;;15.23;8.17;;;;;;;-1.25;100.00;100965.81;5025773;28;20487;-71
2021/01/09 02:42:40;;;;;;;13.60;7.13;;;;;;;-1.27;100.00;100959.69;5009191;28;20041;-71
2021/01/09 02:45:07;;;;;;;14.90;7.37;;;;;;;-1.27;100.00;100964.84;5023221;28;20049;-72
2021/01/09 02:47:33;;;;;;;11.27;6.73;;;;;;;-1.26;100.00;100969.25;5008198;28;20057;-71
2021/01/09 02:50:00;;;;;;;12.60;6.23;;;;;;;-1.25;100.00;100973.59;5025625;28;20128;-71
2021/01/09 02:52:26;;;;;;;12.23;7.07;;;;;;;-1.24;100.00;100971.88;4994649;28;20096;-71
2021/01/09 02:54:52;;;;;;;12.60;6.67;;;;;;;-1.25;100.00;100965.81;5025815;28;20033;-71
2021/01/09 02:57:18;;;;;;;14.73;7.20;;;;;;;-1.25;100.00;100968.41;5011862;28;20033;-72
2021/01/09 02:59:44;;;;;;;13.03;7.97;;;;;;;-1.25;100.00;100978.78;5000805;28;20525;-71
2021/01/09 03:02:11;;;;;;;13.80;6.60;;;;;;;-1.25;100.00;100976.19;5019276;28;20045;-72
2021/01/09 03:04:38;;;;;;;15.90;8.80;;;;;;;-1.25;100.00;100976.19;5007847;28;20103;-72
2021/01/09 03:07:04;;;;;;;15.17;6.80;;;;;;;-1.25;100.00;100981.38;5007100;28;20048;-72
2021/01/09 03:09:30;;;;;;;15.03;6.63;;;;;;;-1.25;100.00;100985.66;5019444;28;20045;-72
2021/01/09 03:11:56;;;;;;;15.40;6.83;;;;;;;-1.26;100.00;100979.59;5015505;28;20060;-72
2021/01/09 03:14:23;;;;;;;13.70;5.60;;;;;;;-1.26;100.00;100983.88;5024533;28;20075;-71
2021/01/09 03:16:49;;;;;;;13.53;7.10;;;;;;;-1.27;100.00;100980.41;5003867;28;20041;-71
2021/01/09 03:19:15;;;;;;;16.23;7.20;;;;;;;-1.27;100.00;100979.53;5025586;28;20117;-71
2021/01/09 03:21:41;;;;;;;12.57;6.67;;;;;;;-1.28;100.00;100980.38;5024105;28;20048;-71
2021/01/09 03:24:08;;;;;;;10.87;5.83;;;;;;;-1.30;100.00;100980.31;5023541;28;20056;-72
2021/01/09 03:26:34;;;;;;;11.97;6.13;;;;;;;-1.32;100.00;100979.41;5023050;28;20819;-71
2021/01/09 03:29:00;;;;;;;15.40;6.83;;;;;;;-1.32;100.00;100981.13;5006763;28;20426;-71
2021/01/09 03:31:27;;;;;;;17.73;7.13;;;;;;;-1.31;100.00;100985.47;5021435;28;20426;-71
2021/01/09 03:33:53;;;;;;;13.17;7.27;;;;;;;-1.33;100.00;100982.81;5020914;28;20069;-71
2021/01/09 03:36:19;;;;;;;16.50;6.83;;;;;;;-1.33;100.00;100990.59;5024429;28;20544;-71
2021/01/09 03:38:45;;;;;;;13.70;7.03;;;;;;;-1.32;100.00;100994.06;5015182;28;20100;-71
2021/01/09 03:41:11;;;;;;;12.83;6.57;;;;;;;-1.34;100.00;101004.41;5019797;28;20045;-71
2021/01/09 03:43:38;;;;;;;14.20;6.10;;;;;;;-1.35;100.00;101001.72;5009258;28;20086;-71
2021/01/09 03:46:04;;;;;;;10.80;5.47;;;;;;;-1.38;100.00;100996.44;5028122;28;20037;-71
2021/01/09 03:48:30;;;;;;;13.30;6.17;;;;;;;-1.39;100.00;100994.69;5019438;28;20066;-71
2021/01/09 03:50:56;;;;;;;12.23;6.47;;;;;;;-1.41;100.00;100999.84;5004016;28;20060;-71
2021/01/09 03:53:23;;;;;;;11.17;6.20;;;;;;;-1.40;100.00;101008.50;5004309;28;20045;-72
2021/01/09 03:55:49;;;;;;;10.10;5.17;;;;;;;-1.44;100.00;101003.19;5004019;28;20033;-72
2021/01/09 03:58:15;;;;;;;12.00;5.93;;;;;;;-1.43;100.00;101011.84;5021930;28;20686;-72
2021/01/09 04:00:41;;;;;;;10.87;5.47;;;;;;;-1.47;100.00;101010.88;5024279;28;20042;-72
2021/01/09 04:03:08;;;;;;;12.40;5.87;;;;;;;-1.50;100.00;101005.59;5002825;28;20065;-72
2021/01/09 04:05:37;;;;;;;7.50;4.93;;;;;;;-1.52;100.00;101011.53;5025643;28;20394;-72
2021/01/09 04:08:03;;;;;;;10.97;6.17;;;;;;;-1.53;100.00;101017.53;4990886;28;20738;-72
2021/01/09 04:10:30;;;;;;;9.47;5.03;;;;;;;-1.56;100.00;101012.28;5019028;28;20046;-71
2021/01/09 04:12:56;;;;;;;10.07;4.50;;;;;;;-1.59;100.00;101014.78;5011151;28;20046;-71
2021/01/09 04:15:23;;;;;;;9.83;5.17;;;;;;;-1.61;100.00;101013.81;5026791;28;20065;-70
2021/01/09 04:17:52;;;;;;;11.83;5.77;;;;;;;-1.60;100.00;101020.75;4993503;28;20041;-71
2021/01/09 04:20:18;;;;;;;11.83;5.43;;;;;;;-1.60;100.00;101021.63;5010298;28;20041;-70
2021/01/09 04:22:44;;;;;;;10.73;5.77;;;;;;;-1.59;100.00;101022.53;5000672;28;20578;-70
2021/01/09 04:25:11;;;;;;;13.60;5.50;;;;;;;-1.59;100.00;101026.00;5018054;28;20029;-71
2021/01/09 04:27:37;;;;;;;9.90;5.17;;;;;;;-1.59;100.00;101033.78;5001366;28;20095;-71
2021/01/09 04:30:04;;;;;;;13.73;7.77;;;;;;;-1.58;100.00;101030.34;5016572;28;20495;-71
2021/01/09 04:32:32;;;;;;;14.03;6.50;;;;;;;-1.58;100.00;101029.47;5007260;28;20519;-71
2021/01/09 04:35:00;;;;;;;9.53;5.43;;;;;;;-1.57;100.00;101041.59;5026534;28;20045;-71
2021/01/09 04:37:26;;;;;;;11.03;5.27;;;;;;;-1.58;100.00;101035.53;5010068;28;20034;-71
2021/01/09 04:39:52;;;;;;;11.87;5.17;;;;;;;-1.58;100.00;101032.94;5024906;28;20485;-72
2021/01/09 04:42:18;;;;;;;13.30;6.50;;;;;;;-1.57;100.00;101039.00;5018002;28;20037;-71
2021/01/09 04:44:45;;;;;;;10.40;5.60;;;;;;;-1.57;100.00;101042.47;5011329;28;20099;-71
2021/01/09 04:47:12;;;;;;;12.63;6.20;;;;;;;-1.57;100.00;101042.47;5008144;28;20069;-71
2021/01/09 04:49:39;;;;;;;12.10;6.63;;;;;;;-1.56;100.00;101049.41;5006932;28;20495;-71
2021/01/09 04:52:05;;;;;;;11.23;5.67;;;;;;;-1.54;100.00;101045.16;5008211;28;20076;-71
2021/01/09 04:54:32;;;;;;;12.17;6.13;;;;;;;-1.54;100.00;101045.16;5002350;28;20060;-71
2021/01/09 04:56:59;;;;;;;11.33;5.97;;;;;;;-1.53;100.00;101041.75;5002391;28;20065;-70
2021/01/09 04:59:25;;;;;;;11.40;5.53;;;;;;;-1.51;100.00;101060.84;5027452;28;20434;-72
2021/01/09 05:01:52;;;;;;;13.30;6.37;;;;;;;-1.50;100.00;101054.81;5025279;28;20042;-71
2021/01/09 05:04:20;;;;;;;11.73;6.60;;;;;;;-1.49;100.00;101056.59;5024409;28;20045;-71
2021/01/09 05:06:47;;;;;;;12.57;6.30;;;;;;;-1.47;100.00;101056.63;5023158;28;20046;-72
2021/01/09 05:09:15;;;;;;;13.97;6.33;;;;;;;-1.46;100.00;101069.63;4988457;28;20045;-71
2021/01/09 05:11:44;;;;;;;11.83;6.20;;;;;;;-1.46;100.00;101060.97;5025190;28;20041;-71
2021/01/09 05:14:13;;;;;;;15.07;7.10;;;;;;;-1.44;100.00;101067.09;5005166;28;20045;-71
2021/01/09 05:16:40;;;;;;;14.10;6.67;;;;;;;-1.44;100.00;101070.56;5010394;28;20038;-71
2021/01/09 05:19:07;;;;;;;14.73;6.67;;;;;;;-1.43;100.00;101068.84;5020863;28;20095;-71
2021/01/09 05:21:36;;;;;;;13.33;7.10;;;;;;;-1.43;100.00;101072.34;4999917;28;20206;-71
2021/01/09 05:24:04;;;;;;;14.50;7.83;;;;;;;-1.42;100.00;101065.44;5004120;28;20034;-71
2021/01/09 05:26:31;;;;;;;13.23;7.00;;;;;;;-1.41;100.00;101077.59;5006423;28;20683;-73
2021/01/09 05:29:04;;;;;;;14.03;6.83;;;;;;;-1.40;100.00;101079.34;5006781;28;20061;-72
2021/01/09 05:31:35;;;;;;;16.30;6.97;;;;;;;-1.40;100.00;101078.47;5007309;28;20044;-72
2021/01/09 05:34:03;;;;;;;15.73;7.10;;;;;;;-1.40;100.00;101079.34;4983811;28;20168;-72
2021/01/09 05:36:29;;;;;;;13.10;7.20;;;;;;;-1.39;100.00;101080.22;5005513;28;20386;-72
2021/01/09 05:38:55;;;;;;;14.77;7.17;;;;;;;-1.38;100.00;101084.56;5001812;28;20441;-73
2021/01/09 05:41:23;;;;;;;13.80;7.30;;;;;;;-1.38;100.00;101084.56;5020567;28;20044;-72
2021/01/09 05:44:06;;;;;;;13.57;7.37;;;;;;;-1.38;100.00;101080.25;4983486;28;20095;-72
2021/01/09 05:46:35;;;;;;;12.47;6.80;;;;;;;-1.37;100.00;101075.97;4999285;28;20049;-72
2021/01/09 05:49:02;;;;;;;17.57;7.30;;;;;;;-1.37;100.00;101076.84;5003392;28;20069;-72
2021/01/09 05:51:38;;;;;;;14.53;6.87;;;;;;;-1.36;100.00;101080.31;5013345;28;20065;-72
2021/01/09 05:54:05;;;;;;;11.80;6.67;;;;;;;-1.36;100.00;101088.97;5000353;28;20042;-73
2021/01/09 05:56:37;;;;;;;13.20;6.57;;;;;;;-1.35;100.00;101090.72;5022961;28;20041;-72
2021/01/09 05:59:03;;;;;;;13.47;7.47;;;;;;;-1.35;100.00;101090.72;5022895;28;20045;-72
2021/01/09 06:01:29;;;;;;;14.93;7.20;;;;;;;-1.33;100.00;101096.88;5021528;28;20552;-73
2021/01/09 06:04:06;;;;;;;15.93;7.97;;;;;;;-1.32;100.00;101093.44;5022527;28;20037;-73
2021/01/09 06:06:32;;;;;;;17.40;8.30;;;;;;;-1.32;100.00;101085.66;4994514;28;20104;-73
2021/01/09 06:09:04;;;;;;;15.33;8.57;;;;;;;-1.30;100.00;101093.50;5021110;28;20076;-72
2021/01/09 06:11:35;;;;;;;14.70;8.50;;;;;;;-1.30;100.00;101102.16;5019666;28;20557;-72
2021/01/09 06:14:04;;;;;;;15.33;7.83;;;;;;;-1.30;100.00;101096.97;5005637;28;20067;-72
2021/01/09 06:16:32;;;;;;;17.13;8.37;;;;;;;-1.29;100.00;101100.44;5024291;28;20057;-72
2021/01/09 06:18:59;;;;;;;17.70;7.90;;;;;;;-1.29;100.00;101103.91;5024306;28;20048;-73
2021/01/09 06:21:26;;;;;;;19.13;8.93;;;;;;;-1.28;100.00;101104.78;5006277;28;20053;-72
2021/01/09 06:23:54;;;;;;;13.37;7.67;;;;;;;-1.28;100.00;101108.25;5019416;28;20029;-73
2021/01/09 06:26:22;;;;;;;16.27;8.00;;;;;;;-1.28;100.00;101112.56;5017205;28;20053;-73
2021/01/09 06:28:51;;;;;;;15.30;8.50;;;;;;;-1.28;100.00;101117.75;5001362;28;20111;-72
2021/01/09 06:31:21;;;;;;;16.60;8.60;;;;;;;-1.28;100.00;101107.38;5007114;28;20139;-73
2021/01/09 06:33:50;;;;;;;16.53;8.17;;;;;;;-1.28;100.00;101121.22;5001627;28;20049;-73
2021/01/09 06:36:18;;;;;;;16.23;8.43;;;;;;;-1.28;100.00;101123.81;5001736;28;20076;-73
2021/01/09 06:38:46;;;;;;;17.70;10.17;;;;;;;-1.27;100.00;101122.97;5020715;28;20037;-73
2021/01/09 06:41:15;;;;;;;19.80;8.83;;;;;;;-1.27;100.00;101115.19;4996403;28;20037;-73
2021/01/09 06:43:45;;;;;;;18.67;9.53;;;;;;;-1.26;100.00;101121.25;5001251;28;20107;-72
2021/01/09 06:46:12;;;;;;;17.67;8.53;;;;;;;-1.25;100.00;101133.44;5019310;28;20054;-73
2021/01/09 06:48:44;;;;;;;19.97;8.53;;;;;;;-1.26;100.00;101135.13;5015277;28;20037;-72
2021/01/09 06:51:35;;;;;;;18.87;8.47;;;;;;;-1.25;100.00;101136.00;4993137;28;20041;-72
2021/01/09 06:54:13;;;;;;;17.07;8.93;;;;;;;-1.26;100.00;101134.22;5016496;28;20044;-72
2021/01/09 06:56:46;;;;;;;18.70;8.20;;;;;;;-1.27;100.00;101133.34;5016716;28;23809;-72
2021/01/09 06:59:28;;;;;;;18.40;9.43;;;;;;;-1.26;100.00;101137.72;5005837;28;20049;-73
2021/01/09 07:02:16;;;;;;;18.93;9.20;;;;;;;-1.27;100.00;101143.72;5018038;28;20114;-72
2021/01/09 07:04:50;;;;;;;18.43;8.50;;;;;;;-1.27;100.00;101148.00;5005044;28;20048;-72
2021/01/09 07:07:26;;;;;;;17.35;8.07;;;;;;;-1.26;100.00;101157.56;5001550;28;20041;-73
2021/01/09 07:09:57;;;;;;;13.93;7.27;;;;;;;-1.26;100.00;101154.97;4996189;28;20143;-72
2021/01/09 07:12:26;;;;;;;14.40;7.50;;;;;;;-1.24;100.00;101151.63;5005335;28;20038;-73
2021/01/09 07:14:53;;;;;;;18.23;8.83;;;;;;;-1.23;100.00;101160.28;5020607;28;20447;-73
2021/01/09 07:17:19;;;;;;;20.30;9.20;;;;;;;-1.21;100.00;101158.59;5021063;28;20033;-73
2021/01/09 07:19:48;;;;;;;16.07;8.33;;;;;;;-1.21;100.00;101163.78;5002193;28;20046;-72
2021/01/09 07:22:17;;;;;;;16.87;8.57;;;;;;;-1.21;100.00;101154.31;5000628;28;20459;-73
2021/01/09 07:24:46;;;;;;;17.30;9.03;;;;;;;-1.20;100.00;101166.44;5007624;28;20045;-73
2021/01/09 07:27:12;;;;;;;17.43;8.90;;;;;;;-1.19;100.00;101173.38;5003452;28;20038;-73
2021/01/09 07:29:43;;;;;;;19.17;8.57;;;;;;;-1.17;100.00;101168.28;5020982;28;20045;-73
2021/01/09 07:32:09;;;;;;;18.03;8.67;;;;;;;-1.18;100.00;101170.00;5021337;28;20041;-73
2021/01/09 07:34:36;;;;;;;19.67;8.83;;;;;;;-1.16;100.00;101177.81;5001705;28;20049;-73
2021/01/09 07:37:03;;;;;;;15.30;8.30;;;;;;;-1.14;100.00;101182.22;5018035;28;20726;-73
2021/01/09 07:39:29;;;;;;;15.63;7.67;;;;;;;-1.14;100.00;101177.03;5007337;28;20055;-73
2021/01/09 07:41:56;;;;;;;17.37;9.20;;;;;;;-1.13;100.00;101173.59;5024508;28;20041;-72
2021/01/09 07:44:23;;;;;;;17.03;9.53;;;;;;;-1.10;100.00;101177.13;5001828;28;20046;-72
2021/01/09 07:46:50;;;;;;;16.73;8.30;;;;;;;-1.08;100.00;101193.63;5003016;28;20091;-73
2021/01/09 07:49:30;;;;;;;16.47;8.33;;;;;;;-1.06;100.00;101194.56;5006508;28;20123;-73
2021/01/09 07:52:03;;;;;;;15.93;8.03;;;;;;;-1.05;100.00;101201.50;5003899;28;20045;-73
2021/01/09 07:54:36;;;;;;;14.07;7.43;;;;;;;-1.04;100.00;101193.78;5018293;28;20042;-73
2021/01/09 07:57:17;;;;;;;19.03;9.10;;;;;;;-1.04;100.00;101188.59;5018452;28;20030;-73
2021/01/09 07:59:56;;;;;;;19.13;8.33;;;;;;;-1.00;100.00;101198.25;5002110;28;20053;-73
2021/01/09 08:02:24;;;;;;;18.00;9.13;;;;;;;-0.97;100.00;101192.28;5007288;28;20059;-73
2021/01/09 08:04:50;;;;;;;24.83;14.07;;;;;;;-0.95;100.00;101203.59;5005411;28;20053;-73
2021/01/09 08:07:17;;;;;;;28.77;14.93;;;;;;;-0.95;100.00;101203.59;5009436;28;20054;-73
2021/01/09 08:09:43;;;;;;;27.20;16.50;;;;;;;-0.94;100.00;101211.41;5005849;28;20095;-73
2021/01/09 08:12:09;;;;;;;25.73;15.60;;;;;;;-0.92;100.00;101212.38;5024579;28;20646;-73
2021/01/09 08:14:36;;;;;;;24.37;13.50;;;;;;;-0.91;100.00;101215.84;5009129;28;20835;-74
2021/01/09 08:17:11;;;;;;;22.57;12.23;;;;;;;-0.91;100.00;101210.66;5027374;28;20045;-74
2021/01/09 08:19:38;;;;;;;26.83;12.23;;;;;;;-0.90;100.00;101207.25;5024783;28;20045;-73
2021/01/09 08:22:04;;;;;;;25.00;10.83;;;;;;;-0.91;100.00;101210.66;5022994;28;20067;-73
2021/01/09 08:24:31;;;;;;;24.13;10.33;;;;;;;-0.92;100.00;101214.09;5016491;28;20120;-74
2021/01/09 08:26:58;;;;;;;25.53;12.27;;;;;;;-0.90;100.00;101213.31;4998858;28;20560;-74
2021/01/09 08:29:25;;;;;;;20.17;10.10;;;;;;;-0.87;100.00;101220.31;4998389;28;20038;-74
2021/01/09 08:31:53;;;;;;;24.20;11.50;;;;;;;-0.87;100.00;101213.41;5018725;28;20115;-74
2021/01/09 08:34:22;;;;;;;20.07;10.13;;;;;;;-0.83;100.00;101221.31;5006238;28;20053;-74
2021/01/09 08:36:55;;;;;;;25.40;11.40;;;;;;;-0.83;100.00;101224.78;4990438;28;20050;-74
2021/01/09 08:39:21;;;;;;;22.50;10.77;;;;;;;-0.80;100.00;101213.63;5013360;28;20800;-75
2021/01/09 08:41:48;;;;;;;21.87;13.03;;;;;;;-0.81;100.00;101214.47;5003657;28;20842;-75
2021/01/09 08:44:15;;;;;;;22.83;11.67;;;;;;;-0.79;100.00;101229.22;5018965;28;20133;-74
2021/01/09 08:46:42;;;;;;;21.87;10.33;;;;;;;-0.74;100.00;101235.47;4988012;28;20046;-74
2021/01/09 08:49:24;;;;;;;28.33;10.23;;;;;;;-0.69;100.00;101227.84;5022113;28;20045;-75
2021/01/09 08:52:06;;;;;;;22.97;9.90;;;;;;;-0.68;100.00;101230.47;5008305;28;20068;-75
2021/01/09 08:54:33;;;;;;;27.50;12.47;;;;;;;-0.65;100.00;101232.31;5018950;28;20042;-74
2021/01/09 08:57:01;;;;;;;21.13;11.50;;;;;;;-0.64;100.00;101237.53;4990497;28;20056;-75
2021/01/09 08:59:28;;;;;;;20.57;10.97;;;;;;;-0.59;100.00;101240.28;5006127;28;20064;-76
2021/01/09 09:01:57;;;;;;;21.83;10.43;;;;;;;-0.59;100.00;101236.00;5010635;28;20395;-76
2021/01/09 09:04:24;;;;;;;25.20;10.23;;;;;;;-0.55;100.00;101242.16;4992520;28;20049;-75
2021/01/09 09:06:57;;;;;;;21.03;9.70;;;;;;;-0.53;100.00;101240.50;5009575;28;20494;-74
2021/01/09 09:09:24;;;;;;;21.07;9.27;;;;;;;-0.50;100.00;101248.41;5008153;28;20048;-77
2021/01/09 09:11:52;;;;;;;16.27;8.90;;;;;;;-0.45;100.00;101232.97;5010862;28;20450;-74
2021/01/09 09:14:18;;;;;;;16.17;9.43;;;;;;;-0.36;100.00;101241.06;4990598;28;20041;-75
2021/01/09 09:16:44;;;;;;;18.00;8.93;;;;;;;-0.30;100.00;101246.47;5006551;28;20053;-75
2021/01/09 09:19:13;;;;;;;19.07;8.30;;;;;;;-0.27;100.00;101243.94;5021487;28;20639;-76
2021/01/09 09:21:47;;;;;;;17.50;8.60;;;;;;;-0.30;100.00;101241.28;5018938;28;20110;-76
2021/01/09 09:24:14;;;;;;;;;;;;;;;-0.34;100.00;101242.91;5003956;28;20560;-75
2021/01/09 09:26:42;;;;;;;15.43;8.03;;;;;;;-0.31;100.00;101245.56;4977726;28;19921;-73
2021/01/09 09:29:08;;;;;;;17.07;8.77;;;;;;;-0.28;100.00;101240.47;5027698;28;20041;-73
2021/01/09 09:31:41;;;;;;;20.23;9.07;;;;;;;-0.24;100.00;101241.47;5013220;28;20559;-73
2021/01/09 09:34:09;;;;;;;16.67;8.10;;;;;;;-0.15;100.00;101240.88;5010875;28;20398;-73
2021/01/09 09:36:38;;;;;;;16.97;8.57;;;;;;;-0.09;100.00;101246.25;5009241;28;20033;-74
2021/01/09 09:39:12;;;;;;;18.63;9.30;;;;;;;-0.02;100.00;101246.50;5008518;28;20071;-73
2021/01/09 09:41:55;;;;;;;16.23;8.02;;;;;;;0.05;100.00;101244.09;4986267;28;20091;-73
2021/01/09 09:44:43;;;;;;;16.13;7.70;;;;;;;0.05;100.00;101252.78;5007069;28;20490;-73
2021/01/09 09:47:28;;;;;;;15.30;7.87;;;;;;;0.08;100.00;101250.25;5021589;28;20174;-73
2021/01/09 09:50:12;;;;;;;14.97;7.20;;;;;;;0.13;100.00;101242.63;5021323;28;20041;-74
2021/01/09 09:52:39;;;;;;;15.67;6.93;;;;;;;0.19;100.00;101246.31;5023245;28;20426;-73
2021/01/09 09:55:07;;;;;;;17.73;7.43;;;;;;;0.21;100.00;101252.41;5002028;28;20568;-73
2021/01/09 09:57:33;;;;;;;16.07;7.07;;;;;;;0.23;100.00;101247.28;4986784;28;20029;-73
2021/01/09 10:00:11;;;;;;;17.67;6.80;;;;;;;0.25;100.00;101240.41;5021313;28;20041;-73
2021/01/09 10:02:38;;;;;;;16.60;7.67;;;;;;;0.25;100.00;101248.19;5008281;28;20053;-73
2021/01/09 10:05:12;;;;;;;17.53;7.97;;;;;;;0.24;100.00;101246.44;4989357;28;20092;-73
2021/01/09 10:07:38;;;;;;;15.23;7.53;;;;;;;0.22;100.00;101255.91;5015503;28;20041;-73
2021/01/09 10:10:25;;;;;;;15.23;7.37;;;;;;;0.22;100.00;101250.72;5000561;28;20056;-73
2021/01/09 10:12:56;;;;;;;18.07;9.13;;;;;;;0.20;100.00;101257.56;5000043;28;20049;-73
2021/01/09 10:15:23;;;;;;;15.83;7.20;;;;;;;0.19;100.00;101250.63;5004345;28;20045;-73
2021/01/09 10:17:58;;;;;;;17.20;7.67;;;;;;;0.20;100.00;101263.66;4991354;28;20503;-73
2021/01/09 10:20:24;;;;;;;18.93;8.33;;;;;;;0.23;100.00;101250.75;4998742;28;20041;-73
2021/01/09 10:22:51;;;;;;;18.10;8.63;;;;;;;0.30;100.00;101258.75;5004840;28;20045;-73
2021/01/09 10:25:17;;;;;;;16.97;8.10;;;;;;;0.31;100.00;101265.69;5000247;28;20599;-73
2021/01/09 10:27:43;;;;;;;16.00;7.40;;;;;;;0.34;100.00;101260.59;5019758;28;20692;-73
2021/01/09 10:30:10;;;;;;;15.23;7.47;;;;;;;0.41;100.00;101254.75;5016897;28;20530;-73
2021/01/09 10:32:36;;;;;;;20.63;8.60;;;;;;;0.49;100.00;101261.06;5007409;28;20029;-73
2021/01/09 10:35:03;;;;;;;17.57;8.57;;;;;;;0.52;100.00;101262.03;5023743;28;20095;-73
2021/01/09 10:37:29;;;;;;;16.43;8.13;;;;;;;0.54;100.00;101259.47;4990778;28;20057;-73
2021/01/09 10:39:55;;;;;;;16.17;7.07;;;;;;;0.60;100.00;101258.78;5006847;28;20061;-73
2021/01/09 10:42:22;;;;;;;16.30;7.37;;;;;;;0.67;100.00;101260.72;5002012;28;20037;-74
2021/01/09 10:44:48;;;;;;;17.77;7.67;;;;;;;0.65;100.00;101257.19;5017847;28;20049;-73
2021/01/09 10:47:15;;;;;;;15.60;7.30;;;;;;;0.67;100.00;101247.72;5018876;28;20120;-74
2021/01/09 10:49:41;;;;;;;15.27;7.60;;;;;;;0.66;100.00;101257.22;5003071;28;20384;-73
2021/01/09 10:52:07;;;;;;;18.87;8.30;;;;;;;0.64;100.00;101260.63;4989370;28;20088;-74
2021/01/09 10:54:33;;;;;;;12.83;7.30;;;;;;;0.62;100.00;101263.19;5024382;28;20045;-74
2021/01/09 10:56:59;;;;;;;12.80;7.77;;;;;;;0.64;100.00;101260.63;5000680;28;20099;-73
2021/01/09 10:59:25;;;;;;;12.87;7.37;;;;;;;0.62;100.00;101260.59;5018288;28;20538;-73
2021/01/09 11:01:56;;;;;;;16.37;7.00;;;;;;;0.62;100.00;101267.50;5017878;28;20059;-74
2021/01/09 11:04:22;;;;;;;15.70;7.67;;;;;;;0.64;100.00;101268.44;5021601;28;20157;-73
2021/01/09 11:06:49;;;;;;;15.97;7.33;;;;;;;0.60;100.00;101266.59;5024818;28;20046;-73
2021/01/09 11:09:15;;;;;;;13.33;6.33;;;;;;;0.64;100.00;101265.84;5009138;28;20049;-73
2021/01/09 11:11:47;;;;;;;12.80;6.57;;;;;;;0.67;100.00;101265.91;5008979;28;20108;-73
2021/01/09 11:14:17;;;;;;;14.33;7.27;;;;;;;0.71;100.00;101271.25;5019186;22;20448;31
2021/01/09 11:17:04;;;;;;;11.38;5.50;;;;;;;0.75;100.00;101270.50;4967980;28;20047;-93